This is the latest recevied weather packets stored in our database for station/object KA6AKH-13. If no packets are shown the sender has not sent any weather packets the latest 10 day(s).
| Time | Temp. | Humidity | Pressure | Rain* | Wind** | Luminosity | Snow |
|---|---|---|---|---|---|---|---|
| 1777802545 | 6.11° C | 78% | 1015.4 hPa | 0 mm | - | - | - |
| 1777801345 | 6.11° C | 78% | 1015.2 hPa | 0 mm | - | - | - |
| 1777798255 | 6.67° C | 76% | 1014.8 hPa | 0 mm | - | - | - |
| 1777797625 | 6.67° C | 75% | 1014.9 hPa | 0 mm | - | - | - |
| 1777797025 | 6.67° C | 74% | 1014.8 hPa | 0 mm | - | - | - |
| 1777796425 | 7.22° C | 73% | 1014.7 hPa | 0 mm | - | - | - |
| 1777791504 | 8.33° C | 68% | 1014.1 hPa | 0 mm | - | - | - |
| 1777790245 | 8.33° C | 67% | 1013.9 hPa | 0 mm | - | - | - |
| 1777789645 | 8.33° C | 67% | 1013.9 hPa | 0 mm | - | - | - |
| 1777787186 | 8.89° C | 66% | 1013.8 hPa | 0 mm | - | - | - |
| 1777786556 | 9.44° C | 65% | 1013.9 hPa | 0 mm | - | - | - |
| 1777785926 | 9.44° C | 66% | 1013.9 hPa | 0 mm | - | - | - |
| 1777785326 | 9.44° C | 64% | 1013.9 hPa | 0 mm | - | - | - |
| 1777784065 | 10° C | 62% | 1013.9 hPa | 0 mm | - | - | - |
| 1777782235 | 10.56° C | 59% | 1014.1 hPa | 0 mm | - | - | - |
| 1777781606 | 10.56° C | 59% | 1014 hPa | 0 mm | - | - | - |
| 1777779145 | 11.67° C | 56% | 1013.7 hPa | 0 mm | - | - | - |
| 1777778674 | 11.67° C | 56% | 1013.7 hPa | 0 mm | - | - | - |
| 1777778515 | 11.67° C | 56% | 1013.7 hPa | 0 mm | - | - | - |
| 1777775455 | 12.22° C | 53% | 1013.6 hPa | 0 mm | - | - | - |
| 1777774825 | 12.22° C | 53% | 1013.6 hPa | 0 mm | - | - | - |
| 1777771178 | 12.78° C | 53% | 1013.1 hPa | 0 mm | - | - | - |
| 1777771104 | 12.78° C | 53% | 1013.1 hPa | 0 mm | - | - | - |
| 1777770678 | 12.78° C | 52% | 1012.9 hPa | 0 mm | - | - | - |
| 1777770475 | 12.78° C | 52% | 1012.9 hPa | 0 mm | - | - | - |
* Rain latest hour (hover to see other rain measurements)
** Current wind speed in m/s (hover to see current wind gust speed)